createdAt,value
2018-08-09T00:01:06.494Z,4.70
2018-08-09T00:03:34.683Z,6.60
2018-08-09T00:06:02.843Z,6.30
2018-08-09T00:08:31.061Z,6.20
2018-08-09T00:10:59.425Z,6.33
2018-08-09T00:13:27.565Z,6.07
2018-08-09T00:15:55.805Z,7.23
2018-08-09T00:18:24.173Z,7.30
2018-08-09T00:20:52.827Z,5.87
2018-08-09T00:23:21.029Z,7.23
2018-08-09T00:25:49.344Z,6.27
2018-08-09T00:28:17.578Z,6.67
2018-08-09T00:30:45.802Z,7.33
2018-08-09T00:33:14.098Z,6.53
2018-08-09T00:35:42.405Z,6.53
2018-08-09T00:38:10.747Z,7.27
2018-08-09T00:40:38.999Z,7.27
2018-08-09T00:43:07.348Z,7.53
2018-08-09T00:45:35.706Z,8.23
2018-08-09T00:48:03.966Z,7.70
2018-08-09T00:50:32.304Z,7.53
2018-08-09T00:53:00.597Z,7.70
2018-08-09T00:55:29.047Z,7.47
2018-08-09T00:57:57.454Z,8.17
2018-08-09T01:00:25.712Z,8.13
2018-08-09T01:02:53.978Z,8.00
2018-08-09T01:05:22.192Z,8.90
2018-08-09T01:07:50.504Z,7.20
2018-08-09T01:10:18.598Z,6.30
2018-08-09T01:12:46.684Z,7.30
2018-08-09T01:15:14.908Z,7.87
2018-08-09T01:17:43.190Z,8.43
2018-08-09T01:20:11.533Z,8.33
2018-08-09T01:22:40.770Z,7.50
2018-08-09T01:25:09.030Z,8.30
2018-08-09T01:27:37.136Z,7.40
2018-08-09T01:30:05.325Z,9.77
2018-08-09T01:32:33.549Z,7.00
2018-08-09T01:35:01.789Z,9.47
2018-08-09T01:37:30.581Z,8.63
2018-08-09T01:39:58.753Z,7.40
2018-08-09T01:42:44.067Z,8.00
2018-08-09T01:45:12.954Z,7.63
2018-08-09T01:47:41.081Z,9.40
2018-08-09T01:50:09.253Z,7.53
2018-08-09T01:52:38.105Z,7.20
2018-08-09T01:55:06.281Z,8.43
2018-08-09T01:57:34.458Z,8.60
2018-08-09T02:00:02.738Z,8.80
2018-08-09T02:02:31.063Z,9.10
2018-08-09T02:04:59.484Z,10.63
2018-08-09T02:07:27.813Z,7.20
2018-08-09T02:09:56.192Z,7.93
2018-08-09T02:12:24.515Z,8.10
2018-08-09T02:14:52.741Z,7.97
2018-08-09T02:17:21.037Z,8.10
2018-08-09T02:19:49.189Z,8.13
2018-08-09T02:22:17.538Z,8.33
2018-08-09T02:24:45.589Z,8.43
2018-08-09T02:27:20.695Z,8.00
2018-08-09T02:29:48.841Z,10.83
2018-08-09T02:32:17.181Z,9.07
2018-08-09T02:34:45.272Z,10.53
2018-08-09T02:37:13.466Z,8.13
2018-08-09T02:39:42.232Z,7.57
2018-08-09T02:42:10.301Z,10.30
2018-08-09T02:44:38.577Z,9.43
2018-08-09T02:47:06.677Z,9.27
2018-08-09T02:49:34.896Z,10.77
2018-08-09T02:52:03.212Z,11.27
2018-08-09T02:54:32.510Z,9.67
2018-08-09T02:57:00.676Z,9.73
2018-08-09T02:59:29.258Z,11.70
2018-08-09T03:01:57.492Z,12.73
2018-08-09T03:04:25.734Z,12.73
2018-08-09T03:06:53.980Z,12.73
2018-08-09T03:09:22.151Z,14.17
2018-08-09T03:11:50.397Z,11.40
2018-08-09T03:14:21.416Z,14.07
2018-08-09T03:16:49.562Z,12.10
2018-08-09T03:19:17.730Z,11.70
2018-08-09T03:21:46.006Z,12.63
2018-08-09T03:24:14.204Z,13.87
2018-08-09T03:26:42.392Z,12.93
2018-08-09T03:29:11.102Z,14.60
2018-08-09T03:31:39.354Z,14.63
2018-08-09T03:34:07.488Z,13.87
2018-08-09T03:36:35.696Z,14.30
2018-08-09T03:39:06.593Z,13.33
2018-08-09T03:41:35.630Z,13.53
2018-08-09T03:44:03.950Z,12.23
2018-08-09T03:46:32.021Z,14.13
2018-08-09T03:49:00.257Z,13.67
2018-08-09T03:51:28.378Z,12.17
2018-08-09T03:53:56.796Z,12.67
2018-08-09T03:56:24.978Z,14.10
2018-08-09T03:58:53.247Z,12.20
2018-08-09T04:01:21.396Z,13.60
2018-08-09T04:03:49.489Z,12.07
2018-08-09T04:06:17.577Z,12.97
2018-08-09T04:08:45.861Z,13.03
2018-08-09T04:11:14.285Z,14.10
2018-08-09T04:13:42.509Z,14.53
2018-08-09T04:16:10.843Z,14.33
2018-08-09T04:18:39.047Z,10.43
2018-08-09T04:21:07.179Z,14.87
2018-08-09T04:23:35.443Z,14.23
2018-08-09T04:26:03.693Z,13.40
2018-08-09T04:28:31.917Z,14.20
2018-08-09T04:31:00.239Z,12.47
2018-08-09T04:33:28.387Z,9.27
2018-08-09T04:35:56.701Z,14.77
2018-08-09T04:38:24.925Z,12.73
2018-08-09T04:40:53.187Z,12.60
2018-08-09T04:43:21.433Z,11.63
2018-08-09T04:45:49.667Z,12.70
2018-08-09T04:48:17.887Z,13.17
2018-08-09T04:50:46.188Z,11.57
2018-08-09T04:53:14.411Z,14.37
2018-08-09T04:55:42.963Z,12.93
2018-08-09T04:58:11.249Z,15.03
2018-08-09T05:00:39.452Z,15.40
2018-08-09T05:03:07.655Z,14.23
2018-08-09T05:05:35.962Z,14.67
2018-08-09T05:08:04.880Z,15.13
2018-08-09T05:10:33.198Z,14.87
2018-08-09T05:13:01.337Z,14.20
2018-08-09T05:15:29.478Z,15.10
2018-08-09T05:17:58.596Z,14.47
2018-08-09T05:20:27.030Z,14.00
2018-08-09T05:22:55.215Z,11.97
2018-08-09T05:25:23.600Z,13.87
2018-08-09T05:27:51.731Z,13.93
2018-08-09T05:30:20.196Z,11.90
2018-08-09T05:32:48.529Z,14.90
2018-08-09T05:35:16.860Z,14.60
2018-08-09T05:37:45.058Z,10.57
2018-08-09T05:40:13.350Z,14.00
2018-08-09T05:42:41.718Z,14.50
2018-08-09T05:45:09.884Z,11.57
2018-08-09T05:47:38.166Z,12.97
2018-08-09T05:50:06.984Z,12.53
2018-08-09T05:52:35.174Z,11.83
2018-08-09T05:55:03.371Z,12.50
2018-08-09T05:57:31.575Z,12.03
2018-08-09T05:59:59.686Z,11.83
2018-08-09T06:02:27.908Z,12.43
2018-08-09T06:04:56.109Z,12.03
2018-08-09T06:07:24.412Z,12.88
2018-08-09T06:09:52.660Z,11.10
2018-08-09T06:12:20.855Z,11.83
2018-08-09T06:14:49.202Z,10.48
2018-08-09T06:17:17.377Z,10.78
2018-08-09T06:19:45.653Z,12.03
2018-08-09T06:22:13.767Z,11.55
2018-08-09T06:24:42.051Z,12.10
2018-08-09T06:27:10.293Z,9.73
2018-08-09T06:29:38.500Z,11.75
2018-08-09T06:32:06.780Z,9.25
2018-08-09T06:34:35.037Z,11.12
2018-08-09T06:37:03.266Z,12.03
2018-08-09T06:39:31.571Z,11.73
2018-08-09T06:41:59.705Z,13.08
2018-08-09T06:44:28.015Z,10.45
2018-08-09T06:46:56.529Z,9.50
2018-08-09T06:49:24.891Z,9.25
2018-08-09T06:51:53.144Z,9.13
2018-08-09T06:54:21.373Z,12.15
2018-08-09T06:56:49.661Z,9.03
2018-08-09T06:59:17.879Z,10.75
2018-08-09T07:01:46.096Z,7.90
2018-08-09T07:04:14.300Z,9.90
2018-08-09T07:06:42.621Z,8.85
2018-08-09T07:09:11.535Z,7.83
2018-08-09T07:11:39.709Z,9.00
2018-08-09T07:14:07.945Z,7.50
2018-08-09T07:16:36.197Z,8.65
2018-08-09T07:19:04.449Z,9.10
2018-08-09T07:21:32.708Z,7.90
2018-08-09T07:24:01.030Z,9.55
2018-08-09T07:26:29.368Z,9.30
2018-08-09T07:28:57.453Z,10.65
2018-08-09T07:31:25.651Z,9.88
2018-08-09T07:33:54.123Z,8.85
2018-08-09T07:36:22.186Z,9.30
2018-08-09T07:38:50.393Z,8.20
2018-08-09T07:41:19.318Z,7.17
2018-08-09T07:43:47.878Z,8.05
2018-08-09T07:46:16.268Z,8.88
2018-08-09T07:48:44.425Z,11.25
2018-08-09T07:51:12.720Z,9.03
2018-08-09T07:53:41.094Z,9.48
2018-08-09T07:56:09.690Z,8.05
2018-08-09T07:58:38.078Z,8.98
2018-08-09T08:01:06.285Z,10.08
2018-08-09T08:03:34.564Z,7.83
2018-08-09T08:06:02.812Z,7.37
2018-08-09T08:08:31.106Z,10.60
2018-08-09T08:10:59.397Z,8.95
2018-08-09T08:13:27.675Z,8.45
2018-08-09T08:15:55.894Z,7.22
2018-08-09T08:18:24.145Z,10.15
2018-08-09T08:20:52.392Z,9.85
2018-08-09T08:23:20.693Z,10.98
2018-08-09T08:25:49.007Z,7.47
2018-08-09T08:28:17.245Z,7.42
2018-08-09T08:30:45.595Z,7.47
2018-08-09T08:33:13.871Z,8.93
2018-08-09T08:35:42.081Z,8.65
2018-08-09T08:38:10.386Z,7.08
2018-08-09T08:40:38.597Z,9.60
2018-08-09T08:43:06.744Z,7.92
2018-08-09T08:45:34.971Z,9.80
2018-08-09T08:48:03.288Z,7.85
2018-08-09T08:50:31.542Z,7.00
2018-08-09T08:52:59.772Z,9.20
2018-08-09T08:55:28.002Z,6.80
2018-08-09T08:57:56.220Z,8.38
2018-08-09T09:00:24.463Z,8.93
2018-08-09T09:02:52.685Z,7.08
2018-08-09T09:05:20.960Z,8.63
2018-08-09T09:07:49.324Z,6.60
2018-08-09T09:10:17.514Z,7.22
2018-08-09T09:12:45.860Z,7.08
2018-08-09T09:15:15.240Z,5.95
2018-08-09T09:17:44.193Z,5.70
2018-08-09T09:20:14.010Z,6.12
2018-08-09T09:22:42.977Z,6.42
2018-08-09T09:25:12.715Z,6.83
2018-08-09T09:27:41.028Z,5.95
2018-08-09T09:30:14.574Z,6.35
2018-08-09T09:32:43.256Z,6.00
2018-08-09T09:35:11.576Z,5.90
2018-08-09T09:37:40.855Z,6.42
2018-08-09T09:40:09.562Z,5.47
2018-08-09T09:42:38.426Z,6.25
2018-08-09T09:45:13.852Z,5.72
2018-08-09T09:47:44.806Z,6.62
2018-08-09T09:50:13.227Z,7.58
2018-08-09T09:52:41.880Z,6.97
2018-08-09T09:55:10.819Z,6.28
2018-08-09T09:57:39.024Z,6.30
2018-08-09T10:00:14.222Z,5.78
2018-08-09T10:02:42.911Z,5.22
2018-08-09T10:05:11.127Z,5.45
2018-08-09T10:07:39.695Z,5.85
2018-08-09T10:10:08.624Z,5.75
2018-08-09T10:12:36.986Z,4.92
2018-08-09T10:15:05.419Z,5.55
2018-08-09T10:17:33.700Z,5.97
2018-08-09T10:20:01.887Z,5.65
2018-08-09T10:22:30.157Z,5.60
2018-08-09T10:24:58.379Z,5.33
2018-08-09T10:27:26.612Z,5.95
2018-08-09T10:29:54.915Z,4.80
2018-08-09T10:32:23.675Z,4.90
2018-08-09T10:34:52.101Z,5.85
2018-08-09T10:37:20.369Z,5.28
2018-08-09T10:39:48.595Z,5.15
2018-08-09T10:42:16.717Z,5.00
2018-08-09T10:44:44.819Z,5.30
2018-08-09T10:47:13.199Z,5.28
2018-08-09T10:49:41.402Z,4.50
2018-08-09T10:52:09.641Z,5.58
2018-08-09T10:54:41.883Z,5.70
2018-08-09T10:57:14.539Z,4.75
2018-08-09T10:59:47.034Z,5.08
2018-08-09T11:02:15.343Z,4.95
2018-08-09T11:04:43.680Z,5.30
2018-08-09T11:07:12.642Z,5.50
2018-08-09T11:09:40.914Z,4.67
2018-08-09T11:12:09.176Z,5.45
2018-08-09T11:14:37.457Z,5.78
2018-08-09T11:17:06.103Z,5.08
2018-08-09T11:19:37.690Z,5.40
2018-08-09T11:24:44.446Z,4.40
2018-08-09T11:27:12.712Z,4.62
2018-08-09T11:29:40.896Z,5.20
2018-08-09T11:32:09.093Z,4.40
2018-08-09T11:34:37.325Z,5.00
2018-08-09T11:37:06.207Z,4.72
2018-08-09T11:39:35.194Z,4.55
2018-08-09T11:42:03.638Z,4.92
2018-08-09T11:44:32.288Z,4.10
2018-08-09T11:47:01.298Z,4.30
2018-08-09T11:49:30.686Z,3.80
2018-08-09T11:51:59.168Z,4.40
2018-08-09T11:54:27.456Z,3.98
2018-08-09T11:56:55.801Z,4.10
2018-08-09T11:59:24.206Z,4.33
2018-08-09T12:01:52.622Z,4.08
2018-08-09T12:04:21.862Z,3.95
2018-08-09T12:06:50.050Z,4.20
2018-08-09T12:09:18.385Z,4.28
2018-08-09T12:11:46.672Z,3.65
2018-08-09T12:14:15.749Z,3.72
2018-08-09T12:16:44.174Z,4.10
2018-08-09T12:19:12.509Z,4.60
2018-08-09T12:21:41.191Z,4.37
2018-08-09T12:24:09.592Z,4.50
2018-08-09T12:26:37.920Z,4.55
2018-08-09T12:29:06.825Z,4.45
2018-08-09T12:31:35.394Z,4.03
2018-08-09T12:34:03.886Z,4.42
2018-08-09T12:36:32.110Z,4.28
2018-08-09T12:39:00.414Z,4.33
2018-08-09T12:41:28.906Z,4.87
2018-08-09T12:43:57.260Z,5.00
2018-08-09T12:46:25.506Z,4.45
2018-08-09T12:48:54.866Z,3.87
2018-08-09T12:51:31.056Z,4.83
2018-08-09T12:53:59.330Z,4.83
2018-08-09T12:56:29.629Z,5.78
2018-08-09T12:58:58.487Z,4.92
2018-08-09T13:01:26.950Z,5.25
2018-08-09T13:03:58.659Z,5.10
2018-08-09T13:06:27.131Z,5.30
2018-08-09T13:08:56.450Z,5.35
2018-08-09T13:11:25.047Z,5.17
2018-08-09T13:13:53.572Z,5.40
2018-08-09T13:16:23.906Z,5.58
2018-08-09T13:19:03.812Z,5.37
2018-08-09T13:21:38.608Z,5.08
2018-08-09T13:24:09.825Z,5.10
2018-08-09T13:26:38.444Z,5.10
2018-08-09T13:29:07.224Z,4.83
2018-08-09T13:31:39.549Z,5.15
2018-08-09T13:34:15.204Z,4.80
2018-08-09T13:36:45.701Z,4.33
2018-08-09T13:39:17.218Z,4.55
2018-08-09T13:41:45.559Z,4.60
2018-08-09T13:44:14.303Z,4.83
2018-08-09T13:46:42.603Z,4.65
2018-08-09T13:49:10.762Z,5.00
2018-08-09T13:51:39.023Z,4.40
2018-08-09T13:57:02.792Z,4.47
2018-08-09T13:59:44.173Z,5.00
2018-08-09T14:02:13.358Z,5.10
2018-08-09T14:04:41.717Z,4.72
2018-08-09T14:07:12.227Z,4.33
2018-08-09T14:09:46.811Z,4.55
2018-08-09T14:12:15.149Z,4.67
2018-08-09T14:14:43.457Z,5.42
2018-08-09T14:17:14.435Z,4.55
2018-08-09T14:19:42.728Z,5.60
2018-08-09T14:22:10.947Z,4.75
2018-08-09T14:24:39.312Z,5.45
2018-08-09T14:27:14.151Z,5.35
2018-08-09T14:29:49.721Z,4.72
2018-08-09T14:32:18.181Z,4.78
2018-08-09T14:34:49.225Z,5.50
2018-08-09T14:37:20.221Z,5.33
2018-08-09T14:39:48.529Z,4.67
2018-08-09T14:42:17.662Z,5.03
2018-08-09T14:44:45.942Z,5.25
2018-08-09T14:47:17.192Z,5.40
2018-08-09T14:49:50.653Z,5.20
2018-08-09T14:52:18.876Z,4.70
2018-08-09T14:54:47.224Z,4.97
2018-08-09T14:57:15.432Z,5.87
2018-08-09T14:59:43.719Z,5.60
2018-08-09T15:02:11.990Z,5.35
2018-08-09T15:04:40.170Z,5.50
2018-08-09T15:07:08.482Z,5.22
2018-08-09T15:09:36.620Z,5.80
2018-08-09T15:12:06.157Z,5.37
2018-08-09T15:14:34.470Z,5.25
2018-08-09T15:17:02.887Z,5.80
2018-08-09T15:19:31.250Z,6.05
2018-08-09T15:21:59.652Z,6.10
2018-08-09T15:24:34.697Z,6.47
2018-08-09T15:27:12.061Z,5.90
2018-08-09T15:29:42.382Z,6.08
2018-08-09T15:32:11.973Z,6.22
2018-08-09T15:51:57.264Z,6.22
2018-08-09T15:54:26.019Z,6.30
2018-08-09T15:56:57.736Z,8.60
2018-08-09T15:59:26.178Z,6.75
2018-08-09T16:01:54.490Z,6.70
2018-08-09T16:04:22.745Z,6.97
2018-08-09T16:06:50.988Z,7.62
2018-08-09T16:09:19.251Z,6.28
2018-08-09T16:11:47.470Z,7.20
2018-08-09T16:14:15.845Z,7.40
2018-08-09T16:16:44.066Z,7.10
2018-08-09T16:19:12.432Z,7.28
2018-08-09T16:21:40.641Z,7.55
2018-08-09T16:24:08.950Z,8.08
2018-08-09T16:26:39.446Z,8.10
2018-08-09T16:29:07.732Z,7.47
2018-08-09T16:31:36.336Z,7.97
2018-08-09T16:34:04.814Z,8.03
2018-08-09T16:36:33.166Z,8.18
2018-08-09T16:39:01.714Z,8.63
2018-08-09T16:41:29.939Z,8.25
2018-08-09T16:43:58.297Z,8.05
2018-08-09T16:46:27.859Z,8.00
2018-08-09T16:48:55.994Z,7.80
2018-08-09T16:51:24.308Z,8.60
2018-08-09T16:53:52.622Z,8.43
2018-08-09T16:56:20.957Z,9.08
2018-08-09T16:58:49.146Z,7.97
2018-08-09T17:01:17.438Z,7.70
2018-08-09T17:03:45.727Z,8.10
2018-08-09T17:06:14.244Z,8.60
2018-08-09T17:08:42.619Z,8.10
2018-08-09T17:11:11.068Z,8.23
2018-08-09T17:13:39.549Z,8.65
2018-08-09T17:16:08.946Z,7.95
2018-08-09T17:18:37.416Z,6.95
2018-08-09T17:21:06.217Z,6.55
2018-08-09T17:23:34.560Z,5.28
2018-08-09T17:26:02.918Z,6.92
2018-08-09T17:28:31.492Z,6.37
2018-08-09T17:30:59.790Z,6.35
2018-08-09T17:33:28.336Z,7.72
2018-08-09T17:35:56.695Z,5.47
2018-08-09T17:38:25.124Z,6.67
2018-08-09T17:40:53.456Z,7.12
2018-08-09T17:43:21.843Z,6.83
2018-08-09T17:45:50.279Z,4.97
2018-08-09T17:48:18.788Z,5.00
2018-08-09T17:50:47.122Z,5.53
2018-08-09T17:53:15.786Z,8.00
2018-08-09T17:55:44.194Z,7.72
2018-08-09T17:58:13.318Z,6.37
2018-08-09T18:00:41.821Z,6.00
2018-08-09T18:03:10.346Z,5.50
2018-08-09T18:05:38.616Z,5.07
2018-08-09T18:08:07.291Z,4.63
2018-08-09T18:10:36.593Z,4.57
2018-08-09T18:13:12.972Z,5.03
2018-08-09T18:15:43.943Z,5.07
2018-08-09T18:18:13.291Z,5.50
2018-08-09T18:20:42.871Z,5.97
2018-08-09T18:23:11.415Z,4.97
2018-08-09T18:25:39.908Z,5.13
2018-08-09T18:28:09.383Z,5.40
2018-08-09T18:30:37.856Z,4.73
2018-08-09T18:33:06.367Z,4.10
2018-08-09T18:35:41.510Z,4.87
2018-08-09T18:51:59.698Z,4.70
2018-08-09T18:54:27.833Z,4.97
2018-08-09T18:56:56.195Z,4.20
2018-08-09T18:59:24.910Z,5.00
2018-08-09T19:01:53.749Z,4.73
2018-08-09T19:04:22.226Z,5.33
2018-08-09T19:06:50.463Z,4.33
2018-08-09T19:09:18.742Z,5.10
2018-08-09T19:11:46.993Z,4.97
2018-08-09T19:14:15.177Z,4.63
2018-08-09T19:16:43.673Z,4.77
2018-08-09T19:19:13.325Z,5.57
2018-08-09T19:21:48.465Z,5.23
2018-08-09T19:24:16.987Z,4.70
2018-08-09T19:26:46.061Z,4.33
2018-08-09T19:29:14.475Z,4.67
2018-08-09T19:31:43.213Z,5.87
2018-08-09T19:34:11.711Z,5.40
2018-08-09T19:36:40.346Z,4.60
2018-08-09T19:39:12.733Z,4.90
2018-08-09T19:41:42.201Z,4.90
2018-08-09T19:44:11.031Z,4.37
2018-08-09T19:46:40.545Z,4.80
2018-08-09T19:49:09.143Z,4.67
2018-08-09T19:51:37.512Z,4.13
2018-08-09T19:54:09.047Z,4.47
2018-08-09T19:56:37.683Z,3.70
2018-08-09T19:59:06.389Z,3.87
2018-08-09T20:01:35.022Z,4.53
2018-08-09T20:04:03.674Z,4.20
2018-08-09T20:06:32.059Z,4.50
2018-08-09T20:09:00.395Z,5.27
2018-08-09T20:11:28.922Z,5.50
2018-08-09T20:13:58.050Z,5.10
2018-08-09T20:16:26.735Z,5.63
2018-08-09T20:18:54.954Z,5.20
2018-08-09T20:21:23.280Z,5.90
2018-08-09T20:23:51.565Z,5.43
2018-08-09T20:26:20.436Z,4.80
2018-08-09T20:28:48.584Z,5.37
2018-08-09T20:31:16.856Z,5.20
2018-08-09T20:33:45.132Z,5.00
2018-08-09T20:36:13.266Z,4.40
2018-08-09T20:38:41.489Z,4.50
2018-08-09T20:41:09.766Z,4.37
2018-08-09T20:43:39.401Z,3.83
2018-08-09T20:46:07.922Z,4.20
2018-08-09T20:48:36.268Z,4.27
2018-08-09T20:51:04.645Z,4.30
2018-08-09T20:53:33.556Z,4.40
2018-08-09T20:56:01.890Z,5.03
2018-08-09T20:58:30.381Z,4.50
2018-08-09T21:00:58.658Z,4.10
2018-08-09T21:03:27.009Z,4.70
2018-08-09T21:05:55.365Z,4.20
2018-08-09T21:08:23.704Z,3.80
2018-08-09T21:10:52.239Z,3.47
2018-08-09T21:13:21.720Z,4.33
2018-08-09T21:15:50.118Z,4.20
2018-08-09T21:18:18.367Z,4.63
2018-08-09T21:20:46.563Z,3.83
2018-08-09T21:23:15.713Z,4.17
2018-08-09T21:25:43.915Z,3.47
2018-08-09T21:28:12.218Z,3.70
2018-08-09T21:30:40.531Z,3.60
2018-08-09T21:33:08.764Z,4.17
2018-08-09T21:35:36.945Z,3.73
2018-08-09T21:38:05.187Z,2.97
2018-08-09T21:40:33.413Z,3.57
2018-08-09T21:43:01.691Z,3.20
2018-08-09T21:45:29.975Z,3.20
2018-08-09T21:47:58.263Z,3.07
2018-08-09T21:50:29.257Z,3.00
2018-08-09T21:52:57.739Z,2.93
2018-08-09T21:55:26.107Z,3.10
2018-08-09T21:57:54.406Z,2.90
2018-08-09T22:00:51.973Z,2.90
2018-08-09T22:03:23.752Z,2.63
2018-08-09T22:05:57.805Z,11.47
2018-08-09T22:08:31.547Z,3.47
2018-08-09T22:11:05.512Z,2.60
2018-08-09T22:13:39.574Z,2.47
2018-08-09T22:16:13.675Z,2.63
2018-08-09T22:18:47.667Z,2.20
2018-08-09T22:21:21.828Z,2.00
2018-08-09T22:23:50.072Z,3.17
2018-08-09T22:26:18.378Z,2.87
2018-08-09T22:28:46.954Z,2.50
2018-08-09T22:31:15.626Z,2.40
2018-08-09T22:33:43.975Z,2.13
2018-08-09T22:36:12.232Z,2.70
2018-08-09T22:38:40.868Z,2.70
2018-08-09T22:41:09.146Z,2.80
2018-08-09T22:43:38.138Z,2.63
2018-08-09T22:46:06.548Z,2.40
2018-08-09T22:48:35.000Z,2.80
2018-08-09T22:51:03.699Z,2.30
2018-08-09T22:53:32.112Z,2.47
2018-08-09T22:56:00.432Z,2.00
2018-08-09T22:58:28.734Z,2.90
2018-08-09T23:00:57.042Z,2.30
2018-08-09T23:03:32.892Z,2.60
2018-08-09T23:06:01.228Z,2.47
2018-08-09T23:08:29.818Z,2.37
2018-08-09T23:10:58.160Z,2.33
2018-08-09T23:13:26.430Z,2.73
2018-08-09T23:15:54.652Z,2.50
2018-08-09T23:18:22.867Z,1.77
2018-08-09T23:20:51.194Z,1.80
2018-08-09T23:23:19.459Z,2.03
2018-08-09T23:25:47.987Z,2.20
2018-08-09T23:28:16.274Z,2.13
2018-08-09T23:30:44.550Z,2.00
2018-08-09T23:33:12.847Z,1.70
2018-08-09T23:35:41.043Z,1.80
2018-08-09T23:38:09.265Z,1.70
2018-08-09T23:40:37.533Z,2.03
2018-08-09T23:43:05.906Z,1.90
2018-08-09T23:45:34.179Z,1.90
2018-08-09T23:48:02.322Z,1.63
2018-08-09T23:50:30.987Z,1.67
2018-08-09T23:52:59.244Z,1.40
2018-08-09T23:55:27.521Z,1.63
2018-08-09T23:57:56.357Z,1.70
